This is the latest recevied weather packets stored in our database for station/object KK7MLS-13. If no packets are shown the sender has not sent any weather packets the latest 10 day(s).
| Time | Temp. | Humidity | Pressure | Rain* | Wind** | Luminosity | Snow |
|---|---|---|---|---|---|---|---|
| 1777486500 | 15.56° C | 56% | 1024.1 hPa | 0 mm | - | 665 W/m² | - |
| 1777486197 | 16.11° C | 53% | 1024.1 hPa | 0 mm | - | 661 W/m² | - |
| 1777485895 | 15° C | 59% | 1024 hPa | 0 mm | - | 644 W/m² | - |
| 1777485590 | 16.11° C | 54% | 1024.2 hPa | 0 mm | - | 655 W/m² | - |
| 1777485286 | 15.56° C | 56% | 1024.2 hPa | 0 mm | - | 638 W/m² | - |
| 1777484983 | 15° C | 59% | 1024.2 hPa | 0 mm | - | 623 W/m² | - |
| 1777484680 | 15.56° C | 56% | 1024.3 hPa | 0 mm | - | 624 W/m² | - |
| 1777484376 | 15.56° C | 56% | 1024.2 hPa | 0 mm | - | 617 W/m² | - |
| 1777484073 | 15° C | 58% | 1024.1 hPa | 0 mm | - | 601 W/m² | - |
| 1777483769 | 15° C | 57% | 1024.2 hPa | 0 mm | - | 583 W/m² | - |
| 1777483466 | 14.44° C | 60% | 1024.3 hPa | 0 mm | - | 440 W/m² | - |
| 1777483166 | 14.44° C | 58% | 1024.5 hPa | 0 mm | - | 563 W/m² | - |
| 1777482863 | 14.44° C | 59% | 1024.3 hPa | 0 mm | - | 546 W/m² | - |
| 1777482559 | 14.44° C | 57% | 1024.4 hPa | 0 mm | - | 540 W/m² | - |
| 1777482257 | 13.33° C | 62% | 1024.5 hPa | 0 mm | - | 543 W/m² | - |
| 1777481954 | 12.78° C | 64% | 1024.6 hPa | 0 mm | - | 515 W/m² | - |
| 1777481651 | 13.33° C | 62% | 1024.4 hPa | 0 mm | - | 510 W/m² | - |
| 1777481348 | 13.33° C | 63% | 1024.6 hPa | 0 mm | - | 497 W/m² | - |
| 1777481045 | 12.78° C | 64% | 1024.5 hPa | 0 mm | - | 143 W/m² | - |
| 1777480741 | 12.78° C | 65% | 1024.6 hPa | 0 mm | - | 452 W/m² | - |
| 1777480438 | 12.78° C | 65% | 1024.7 hPa | 0 mm | - | 450 W/m² | - |
| 1777480134 | 12.22° C | 63% | 1024.8 hPa | 0 mm | - | 454 W/m² | - |
| 1777479830 | 12.78° C | 62% | 1024.7 hPa | 0 mm | - | 423 W/m² | - |
| 1777479528 | 12.78° C | 64% | 1024.6 hPa | 0 mm | - | 409 W/m² | - |
| 1777479224 | 12.78° C | 62% | 1024.9 hPa | 0 mm | - | 388 W/m² | - |
* Rain latest hour (hover to see other rain measurements)
** Current wind speed in m/s (hover to see current wind gust speed)